Terminal Aerodrome Forecast
Issued by NWS Charleston, WV

Current Version | Previous Version | Graphics & Text | Print | Product List | Glossary On
Versions: 1 2 3 4 5 6 7 8 9 10 11 12 13 14 15 16 17 18 19 20 21 22 23 24 25 26 27 28 29 30
000
FTUS41 KRLX 030539
TAFCRW
TAF
KCRW 030539Z 0306/0406 00000KT 4SM BR SCT001 BKN030
     FM030900 00000KT 1SM BR BKN001 BKN030
     FM031300 00000KT 3SM BR BKN020
     FM031400 12004KT 6SM SHRA BR VCTS BKN015CB
     FM032100 24004KT 3SM TSRA OVC020CB
     FM032300 24005KT 5SM SHRA VCTS OVC020CB
     FM040300 25005KT 5SM BR BKN015=

USA.gov is the U.S. government's official web portal to all federal, state and local government web resources and services.